sensor_id;sensor_type;location;lat;lon;timestamp;P1;durP1;ratioP1;P2;durP2;ratioP2
44516;SDS011;30223;17.182;-96.766;2022-09-09T00:00:47;2.42;;;1.33;;
44516;SDS011;30223;17.182;-96.766;2022-09-09T00:03:45;1.83;;;1.17;;
44516;SDS011;30223;17.182;-96.766;2022-09-09T00:09:15;1.15;;;0.88;;
44516;SDS011;30223;17.182;-96.766;2022-09-09T00:12:02;1.20;;;1.10;;
44516;SDS011;30223;17.182;-96.766;2022-09-09T00:14:54;1.15;;;0.90;;
44516;SDS011;30223;17.182;-96.766;2022-09-09T00:20:12;1.30;;;1.05;;
44516;SDS011;30223;17.182;-96.766;2022-09-09T00:22:53;1.73;;;1.50;;
44516;SDS011;30223;17.182;-96.766;2022-09-09T00:25:40;1.10;;;0.90;;
44516;SDS011;30223;17.182;-96.766;2022-09-09T00:28:23;1.20;;;1.10;;
44516;SDS011;30223;17.182;-96.766;2022-09-09T00:30:52;1.00;;;0.88;;
44516;SDS011;30223;17.182;-96.766;2022-09-09T00:33:23;1.55;;;1.20;;
44516;SDS011;30223;17.182;-96.766;2022-09-09T00:35:51;1.42;;;1.10;;
44516;SDS011;30223;17.182;-96.766;2022-09-09T00:41:03;1.50;;;1.10;;
44516;SDS011;30223;17.182;-96.766;2022-09-09T00:43:37;1.55;;;1.45;;
44516;SDS011;30223;17.182;-96.766;2022-09-09T00:46:10;1.10;;;1.00;;
44516;SDS011;30223;17.182;-96.766;2022-09-09T00:48:54;1.90;;;0.90;;
44516;SDS011;30223;17.182;-96.766;2022-09-09T00:52:08;0.88;;;0.88;;
44516;SDS011;30223;17.182;-96.766;2022-09-09T00:55:04;1.30;;;1.20;;
44516;SDS011;30223;17.182;-96.766;2022-09-09T00:57:41;1.20;;;1.00;;
44516;SDS011;30223;17.182;-96.766;2022-09-09T01:14:42;1.20;;;1.10;;
44516;SDS011;30223;17.182;-96.766;2022-09-09T01:17:14;1.90;;;1.10;;
44516;SDS011;30223;17.182;-96.766;2022-09-09T01:25:56;1.92;;;1.15;;
44516;SDS011;30223;17.182;-96.766;2022-09-09T01:28:35;2.13;;;1.13;;
44516;SDS011;30223;17.182;-96.766;2022-09-09T01:31:06;1.52;;;1.05;;
44516;SDS011;30223;17.182;-96.766;2022-09-09T01:33:36;1.05;;;0.90;;
44516;SDS011;30223;17.182;-96.766;2022-09-09T01:36:14;1.75;;;1.05;;
44516;SDS011;30223;17.182;-96.766;2022-09-09T01:38:53;1.33;;;1.13;;
44516;SDS011;30223;17.182;-96.766;2022-09-09T01:41:20;1.20;;;1.10;;
44516;SDS011;30223;17.182;-96.766;2022-09-09T01:43:47;1.10;;;0.80;;
44516;SDS011;30223;17.182;-96.766;2022-09-09T01:46:14;1.20;;;1.10;;
44516;SDS011;30223;17.182;-96.766;2022-09-09T01:48:41;1.13;;;0.98;;
44516;SDS011;30223;17.182;-96.766;2022-09-09T01:51:09;1.13;;;1.00;;
44516;SDS011;30223;17.182;-96.766;2022-09-09T01:53:36;1.45;;;0.85;;
44516;SDS011;30223;17.182;-96.766;2022-09-09T02:04:15;1.63;;;1.05;;
44516;SDS011;30223;17.182;-96.766;2022-09-09T02:07:03;2.25;;;0.90;;
44516;SDS011;30223;17.182;-96.766;2022-09-09T02:09:41;1.85;;;0.90;;
44516;SDS011;30223;17.182;-96.766;2022-09-09T02:12:13;1.40;;;1.10;;
44516;SDS011;30223;17.182;-96.766;2022-09-09T02:14:48;2.60;;;1.00;;
44516;SDS011;30223;17.182;-96.766;2022-09-09T02:17:22;1.17;;;1.08;;
44516;SDS011;30223;17.182;-96.766;2022-09-09T02:19:59;1.33;;;1.00;;
44516;SDS011;30223;17.182;-96.766;2022-09-09T02:22:32;2.67;;;1.20;;
44516;SDS011;30223;17.182;-96.766;2022-09-09T02:25:01;1.73;;;1.60;;
44516;SDS011;30223;17.182;-96.766;2022-09-09T02:27:30;1.17;;;1.08;;
44516;SDS011;30223;17.182;-96.766;2022-09-09T02:29:57;1.75;;;0.98;;
44516;SDS011;30223;17.182;-96.766;2022-09-09T02:32:27;1.27;;;1.17;;
44516;SDS011;30223;17.182;-96.766;2022-09-09T02:35:06;1.83;;;1.40;;
44516;SDS011;30223;17.182;-96.766;2022-09-09T02:37:37;2.33;;;0.93;;
44516;SDS011;30223;17.182;-96.766;2022-09-09T02:40:05;1.20;;;1.10;;
44516;SDS011;30223;17.182;-96.766;2022-09-09T02:42:40;1.45;;;1.30;;
44516;SDS011;30223;17.182;-96.766;2022-09-09T02:45:15;1.63;;;1.00;;
44516;SDS011;30223;17.182;-96.766;2022-09-09T02:48:04;1.80;;;1.40;;
44516;SDS011;30223;17.182;-96.766;2022-09-09T02:56:30;1.27;;;0.93;;
44516;SDS011;30223;17.182;-96.766;2022-09-09T02:59:04;1.65;;;0.95;;
44516;SDS011;30223;17.182;-96.766;2022-09-09T03:01:31;0.85;;;0.80;;
44516;SDS011;30223;17.182;-96.766;2022-09-09T03:03:58;1.80;;;1.25;;
44516;SDS011;30223;17.182;-96.766;2022-09-09T03:06:24;1.27;;;1.02;;
44516;SDS011;30223;17.182;-96.766;2022-09-09T03:08:52;1.25;;;1.00;;
44516;SDS011;30223;17.182;-96.766;2022-09-09T03:11:19;0.95;;;0.88;;
44516;SDS011;30223;17.182;-96.766;2022-09-09T03:13:45;0.88;;;0.88;;
44516;SDS011;30223;17.182;-96.766;2022-09-09T03:16:12;1.25;;;1.05;;
44516;SDS011;30223;17.182;-96.766;2022-09-09T03:18:40;0.80;;;0.70;;
44516;SDS011;30223;17.182;-96.766;2022-09-09T03:21:07;1.17;;;0.80;;
44516;SDS011;30223;17.182;-96.766;2022-09-09T03:23:34;2.20;;;1.13;;
44516;SDS011;30223;17.182;-96.766;2022-09-09T03:26:01;1.50;;;0.95;;
44516;SDS011;30223;17.182;-96.766;2022-09-09T03:28:27;1.83;;;1.10;;
44516;SDS011;30223;17.182;-96.766;2022-09-09T03:31:00;0.90;;;0.75;;
44516;SDS011;30223;17.182;-96.766;2022-09-09T03:33:30;1.23;;;0.80;;
44516;SDS011;30223;17.182;-96.766;2022-09-09T03:35:57;0.90;;;0.77;;
44516;SDS011;30223;17.182;-96.766;2022-09-09T03:38:24;1.10;;;1.00;;
44516;SDS011;30223;17.182;-96.766;2022-09-09T03:40:54;1.10;;;1.02;;
44516;SDS011;30223;17.182;-96.766;2022-09-09T03:43:23;1.67;;;0.88;;
44516;SDS011;30223;17.182;-96.766;2022-09-09T03:45:50;0.80;;;0.80;;
44516;SDS011;30223;17.182;-96.766;2022-09-09T03:48:18;1.52;;;1.25;;
44516;SDS011;30223;17.182;-96.766;2022-09-09T03:50:47;1.25;;;0.90;;
44516;SDS011;30223;17.182;-96.766;2022-09-09T03:53:16;1.30;;;0.90;;
44516;SDS011;30223;17.182;-96.766;2022-09-09T03:55:45;1.20;;;1.02;;
44516;SDS011;30223;17.182;-96.766;2022-09-09T03:58:13;0.87;;;0.83;;
44516;SDS011;30223;17.182;-96.766;2022-09-09T04:00:40;1.13;;;0.95;;
44516;SDS011;30223;17.182;-96.766;2022-09-09T04:03:10;1.40;;;1.30;;
44516;SDS011;30223;17.182;-96.766;2022-09-09T04:05:40;1.83;;;0.93;;
44516;SDS011;30223;17.182;-96.766;2022-09-09T04:08:07;1.48;;;0.90;;
44516;SDS011;30223;17.182;-96.766;2022-09-09T04:10:34;1.98;;;1.05;;
44516;SDS011;30223;17.182;-96.766;2022-09-09T04:13:04;1.48;;;1.10;;
44516;SDS011;30223;17.182;-96.766;2022-09-09T04:15:31;1.52;;;1.00;;
44516;SDS011;30223;17.182;-96.766;2022-09-09T04:17:58;1.58;;;1.05;;
44516;SDS011;30223;17.182;-96.766;2022-09-09T04:20:25;1.20;;;1.10;;
44516;SDS011;30223;17.182;-96.766;2022-09-09T04:22:52;1.48;;;0.88;;
44516;SDS011;30223;17.182;-96.766;2022-09-09T04:25:19;1.00;;;0.85;;
44516;SDS011;30223;17.182;-96.766;2022-09-09T04:27:45;0.70;;;0.70;;
44516;SDS011;30223;17.182;-96.766;2022-09-09T04:30:12;1.20;;;1.00;;
44516;SDS011;30223;17.182;-96.766;2022-09-09T04:32:39;1.15;;;0.73;;
44516;SDS011;30223;17.182;-96.766;2022-09-09T04:35:06;1.35;;;1.08;;
44516;SDS011;30223;17.182;-96.766;2022-09-09T04:37:33;1.05;;;0.80;;
44516;SDS011;30223;17.182;-96.766;2022-09-09T04:39:59;1.15;;;0.82;;
44516;SDS011;30223;17.182;-96.766;2022-09-09T04:42:27;0.90;;;0.90;;
44516;SDS011;30223;17.182;-96.766;2022-09-09T04:44:54;1.05;;;0.80;;
44516;SDS011;30223;17.182;-96.766;2022-09-09T04:47:21;1.10;;;1.00;;
44516;SDS011;30223;17.182;-96.766;2022-09-09T04:49:47;1.25;;;1.20;;
44516;SDS011;30223;17.182;-96.766;2022-09-09T04:52:15;1.55;;;1.38;;
44516;SDS011;30223;17.182;-96.766;2022-09-09T04:54:42;1.63;;;1.08;;
44516;SDS011;30223;17.182;-96.766;2022-09-09T04:57:10;1.25;;;1.15;;
44516;SDS011;30223;17.182;-96.766;2022-09-09T04:59:36;1.00;;;0.70;;
44516;SDS011;30223;17.182;-96.766;2022-09-09T05:02:04;1.20;;;1.00;;
44516;SDS011;30223;17.182;-96.766;2022-09-09T05:04:31;4.90;;;1.00;;
44516;SDS011;30223;17.182;-96.766;2022-09-09T05:06:58;0.95;;;0.80;;
44516;SDS011;30223;17.182;-96.766;2022-09-09T05:09:25;1.42;;;0.82;;
44516;SDS011;30223;17.182;-96.766;2022-09-09T05:11:51;1.23;;;1.13;;
44516;SDS011;30223;17.182;-96.766;2022-09-09T05:14:18;1.52;;;0.90;;
44516;SDS011;30223;17.182;-96.766;2022-09-09T05:16:45;1.08;;;0.80;;
44516;SDS011;30223;17.182;-96.766;2022-09-09T05:19:12;1.00;;;0.90;;
44516;SDS011;30223;17.182;-96.766;2022-09-09T05:21:39;1.33;;;0.90;;
44516;SDS011;30223;17.182;-96.766;2022-09-09T05:24:06;0.80;;;0.80;;
44516;SDS011;30223;17.182;-96.766;2022-09-09T05:26:33;0.98;;;0.88;;
44516;SDS011;30223;17.182;-96.766;2022-09-09T05:29:00;1.13;;;0.90;;
44516;SDS011;30223;17.182;-96.766;2022-09-09T05:31:26;1.25;;;0.90;;
44516;SDS011;30223;17.182;-96.766;2022-09-09T05:33:55;1.10;;;0.80;;
44516;SDS011;30223;17.182;-96.766;2022-09-09T05:36:22;0.90;;;0.75;;
44516;SDS011;30223;17.182;-96.766;2022-09-09T05:38:49;1.38;;;0.75;;
44516;SDS011;30223;17.182;-96.766;2022-09-09T05:41:16;1.15;;;1.05;;
44516;SDS011;30223;17.182;-96.766;2022-09-09T05:43:43;1.80;;;1.35;;
44516;SDS011;30223;17.182;-96.766;2022-09-09T05:46:12;1.52;;;1.05;;
44516;SDS011;30223;17.182;-96.766;2022-09-09T05:48:41;1.90;;;0.80;;
44516;SDS011;30223;17.182;-96.766;2022-09-09T05:51:12;1.67;;;1.02;;
44516;SDS011;30223;17.182;-96.766;2022-09-09T05:53:41;1.65;;;0.70;;
44516;SDS011;30223;17.182;-96.766;2022-09-09T05:56:15;1.17;;;0.82;;
44516;SDS011;30223;17.182;-96.766;2022-09-09T05:58:43;1.40;;;0.90;;
44516;SDS011;30223;17.182;-96.766;2022-09-09T06:01:13;1.27;;;0.80;;
44516;SDS011;30223;17.182;-96.766;2022-09-09T06:03:45;0.75;;;0.68;;
44516;SDS011;30223;17.182;-96.766;2022-09-09T06:06:15;1.33;;;1.13;;
44516;SDS011;30223;17.182;-96.766;2022-09-09T06:08:46;2.22;;;1.00;;
44516;SDS011;30223;17.182;-96.766;2022-09-09T06:11:14;2.22;;;0.93;;
44516;SDS011;30223;17.182;-96.766;2022-09-09T06:13:43;1.50;;;0.95;;
44516;SDS011;30223;17.182;-96.766;2022-09-09T06:16:10;1.17;;;0.73;;
44516;SDS011;30223;17.182;-96.766;2022-09-09T06:18:38;1.15;;;0.70;;
44516;SDS011;30223;17.182;-96.766;2022-09-09T06:21:14;2.80;;;0.90;;
44516;SDS011;30223;17.182;-96.766;2022-09-09T06:23:43;0.98;;;0.70;;
44516;SDS011;30223;17.182;-96.766;2022-09-09T06:26:13;3.17;;;1.05;;
44516;SDS011;30223;17.182;-96.766;2022-09-09T06:28:45;1.05;;;0.90;;
44516;SDS011;30223;17.182;-96.766;2022-09-09T06:31:14;1.50;;;0.95;;
44516;SDS011;30223;17.182;-96.766;2022-09-09T06:33:48;1.25;;;0.80;;
44516;SDS011;30223;17.182;-96.766;2022-09-09T06:36:29;1.85;;;0.98;;
44516;SDS011;30223;17.182;-96.766;2022-09-09T06:38:59;1.23;;;0.80;;
44516;SDS011;30223;17.182;-96.766;2022-09-09T06:41:27;2.40;;;1.13;;
44516;SDS011;30223;17.182;-96.766;2022-09-09T06:43:55;1.73;;;1.63;;
44516;SDS011;30223;17.182;-96.766;2022-09-09T06:46:23;1.60;;;1.10;;
44516;SDS011;30223;17.182;-96.766;2022-09-09T06:48:55;3.55;;;1.20;;
44516;SDS011;30223;17.182;-96.766;2022-09-09T06:51:34;2.75;;;1.38;;
44516;SDS011;30223;17.182;-96.766;2022-09-09T06:54:03;3.28;;;0.85;;
44516;SDS011;30223;17.182;-96.766;2022-09-09T06:56:31;1.20;;;1.05;;
44516;SDS011;30223;17.182;-96.766;2022-09-09T06:59:00;1.48;;;1.30;;
44516;SDS011;30223;17.182;-96.766;2022-09-09T07:01:31;1.35;;;1.25;;
44516;SDS011;30223;17.182;-96.766;2022-09-09T07:03:59;1.30;;;1.08;;
44516;SDS011;30223;17.182;-96.766;2022-09-09T07:06:31;1.10;;;1.00;;
44516;SDS011;30223;17.182;-96.766;2022-09-09T07:09:00;1.10;;;0.98;;
44516;SDS011;30223;17.182;-96.766;2022-09-09T07:11:32;1.85;;;1.20;;
44516;SDS011;30223;17.182;-96.766;2022-09-09T07:14:02;1.33;;;1.05;;
44516;SDS011;30223;17.182;-96.766;2022-09-09T07:16:29;1.65;;;1.23;;
44516;SDS011;30223;17.182;-96.766;2022-09-09T07:21:26;1.25;;;1.15;;
44516;SDS011;30223;17.182;-96.766;2022-09-09T07:23:54;1.23;;;1.13;;
44516;SDS011;30223;17.182;-96.766;2022-09-09T07:26:22;1.08;;;1.00;;
44516;SDS011;30223;17.182;-96.766;2022-09-09T07:31:20;1.58;;;1.48;;
44516;SDS011;30223;17.182;-96.766;2022-09-09T07:33:50;1.83;;;1.67;;
44516;SDS011;30223;17.182;-96.766;2022-09-09T07:36:21;1.42;;;1.25;;
44516;SDS011;30223;17.182;-96.766;2022-09-09T07:38:50;1.63;;;1.50;;
44516;SDS011;30223;17.182;-96.766;2022-09-09T07:41:40;1.90;;;1.75;;
44516;SDS011;30223;17.182;-96.766;2022-09-09T07:44:10;3.25;;;1.77;;
44516;SDS011;30223;17.182;-96.766;2022-09-09T07:46:41;1.20;;;1.10;;
44516;SDS011;30223;17.182;-96.766;2022-09-09T07:49:08;3.35;;;1.58;;
44516;SDS011;30223;17.182;-96.766;2022-09-09T07:51:37;1.95;;;1.55;;
44516;SDS011;30223;17.182;-96.766;2022-09-09T07:54:05;2.42;;;2.22;;
44516;SDS011;30223;17.182;-96.766;2022-09-09T07:56:34;2.28;;;2.08;;
44516;SDS011;30223;17.182;-96.766;2022-09-09T07:59:02;2.53;;;2.28;;
44516;SDS011;30223;17.182;-96.766;2022-09-09T08:01:36;2.38;;;2.17;;
44516;SDS011;30223;17.182;-96.766;2022-09-09T08:04:08;2.20;;;2.00;;
44516;SDS011;30223;17.182;-96.766;2022-09-09T08:06:40;2.40;;;2.20;;
44516;SDS011;30223;17.182;-96.766;2022-09-09T08:11:36;2.42;;;2.05;;
44516;SDS011;30223;17.182;-96.766;2022-09-09T08:14:04;2.92;;;2.03;;
44516;SDS011;30223;17.182;-96.766;2022-09-09T08:16:33;2.38;;;2.10;;
44516;SDS011;30223;17.182;-96.766;2022-09-09T08:19:02;3.15;;;2.92;;
44516;SDS011;30223;17.182;-96.766;2022-09-09T08:21:31;4.80;;;4.28;;
44516;SDS011;30223;17.182;-96.766;2022-09-09T08:23:59;3.22;;;2.83;;
44516;SDS011;30223;17.182;-96.766;2022-09-09T08:26:29;4.00;;;2.97;;
44516;SDS011;30223;17.182;-96.766;2022-09-09T08:28:59;4.45;;;3.35;;
44516;SDS011;30223;17.182;-96.766;2022-09-09T08:31:28;3.37;;;3.10;;
44516;SDS011;30223;17.182;-96.766;2022-09-09T08:33:57;3.75;;;3.45;;
44516;SDS011;30223;17.182;-96.766;2022-09-09T08:36:25;3.28;;;3.03;;
44516;SDS011;30223;17.182;-96.766;2022-09-09T08:38:54;3.47;;;3.28;;
44516;SDS011;30223;17.182;-96.766;2022-09-09T08:44:10;4.10;;;3.80;;
44516;SDS011;30223;17.182;-96.766;2022-09-09T08:52:37;4.63;;;4.30;;
44516;SDS011;30223;17.182;-96.766;2022-09-09T08:57:50;5.82;;;5.32;;
44516;SDS011;30223;17.182;-96.766;2022-09-09T09:00:19;6.15;;;5.47;;
44516;SDS011;30223;17.182;-96.766;2022-09-09T09:05:46;6.45;;;5.88;;
44516;SDS011;30223;17.182;-96.766;2022-09-09T09:11:06;6.22;;;5.72;;
44516;SDS011;30223;17.182;-96.766;2022-09-09T09:16:27;7.40;;;6.65;;
44516;SDS011;30223;17.182;-96.766;2022-09-09T09:19:04;5.72;;;5.18;;
44516;SDS011;30223;17.182;-96.766;2022-09-09T09:21:41;6.72;;;6.22;;
44516;SDS011;30223;17.182;-96.766;2022-09-09T09:24:15;7.28;;;6.63;;
44516;SDS011;30223;17.182;-96.766;2022-09-09T09:26:48;7.03;;;6.53;;
44516;SDS011;30223;17.182;-96.766;2022-09-09T09:29:18;6.80;;;6.20;;
44516;SDS011;30223;17.182;-96.766;2022-09-09T09:31:53;6.85;;;6.25;;
44516;SDS011;30223;17.182;-96.766;2022-09-09T09:34:22;8.15;;;7.40;;
44516;SDS011;30223;17.182;-96.766;2022-09-09T09:36:54;7.80;;;7.10;;
44516;SDS011;30223;17.182;-96.766;2022-09-09T09:39:28;8.55;;;7.88;;
44516;SDS011;30223;17.182;-96.766;2022-09-09T09:41:56;9.13;;;8.32;;
44516;SDS011;30223;17.182;-96.766;2022-09-09T09:44:32;9.30;;;8.32;;
44516;SDS011;30223;17.182;-96.766;2022-09-09T09:47:10;9.27;;;8.57;;
44516;SDS011;30223;17.182;-96.766;2022-09-09T09:52:20;9.18;;;8.38;;
44516;SDS011;30223;17.182;-96.766;2022-09-09T09:54:55;10.48;;;9.48;;
44516;SDS011;30223;17.182;-96.766;2022-09-09T09:57:30;10.98;;;9.98;;
44516;SDS011;30223;17.182;-96.766;2022-09-09T10:00:17;12.20;;;9.52;;
44516;SDS011;30223;17.182;-96.766;2022-09-09T10:02:47;9.70;;;8.80;;
44516;SDS011;30223;17.182;-96.766;2022-09-09T10:05:21;12.40;;;11.27;;
44516;SDS011;30223;17.182;-96.766;2022-09-09T10:08:15;12.10;;;10.90;;
44516;SDS011;30223;17.182;-96.766;2022-09-09T10:10:47;11.43;;;10.30;;
44516;SDS011;30223;17.182;-96.766;2022-09-09T10:19:32;12.52;;;11.43;;
44516;SDS011;30223;17.182;-96.766;2022-09-09T10:32:46;13.30;;;11.95;;
44516;SDS011;30223;17.182;-96.766;2022-09-09T10:43:32;16.38;;;14.77;;
44516;SDS011;30223;17.182;-96.766;2022-09-09T10:53:52;15.43;;;13.82;;
44516;SDS011;30223;17.182;-96.766;2022-09-09T10:56:56;15.98;;;14.25;;
44516;SDS011;30223;17.182;-96.766;2022-09-09T10:59:36;16.35;;;14.43;;
44516;SDS011;30223;17.182;-96.766;2022-09-09T11:04:42;17.02;;;15.32;;
44516;SDS011;30223;17.182;-96.766;2022-09-09T11:07:24;17.33;;;15.30;;
44516;SDS011;30223;17.182;-96.766;2022-09-09T11:10:21;19.15;;;17.15;;
44516;SDS011;30223;17.182;-96.766;2022-09-09T11:13:01;18.38;;;16.60;;
44516;SDS011;30223;17.182;-96.766;2022-09-09T11:15:35;18.73;;;16.83;;
44516;SDS011;30223;17.182;-96.766;2022-09-09T11:18:11;22.15;;;19.02;;
44516;SDS011;30223;17.182;-96.766;2022-09-09T11:20:43;21.88;;;19.60;;
44516;SDS011;30223;17.182;-96.766;2022-09-09T11:23:13;19.73;;;17.63;;
44516;SDS011;30223;17.182;-96.766;2022-09-09T11:25:54;19.65;;;16.88;;
44516;SDS011;30223;17.182;-96.766;2022-09-09T11:37:14;19.67;;;17.17;;
44516;SDS011;30223;17.182;-96.766;2022-09-09T11:42:23;20.35;;;17.50;;
44516;SDS011;30223;17.182;-96.766;2022-09-09T11:44:50;23.45;;;19.50;;
44516;SDS011;30223;17.182;-96.766;2022-09-09T11:52:47;24.63;;;20.48;;
44516;SDS011;30223;17.182;-96.766;2022-09-09T11:58:05;23.95;;;21.35;;
44516;SDS011;30223;17.182;-96.766;2022-09-09T12:00:43;25.85;;;21.45;;
44516;SDS011;30223;17.182;-96.766;2022-09-09T12:06:14;27.27;;;22.42;;
44516;SDS011;30223;17.182;-96.766;2022-09-09T12:08:52;28.80;;;22.20;;
44516;SDS011;30223;17.182;-96.766;2022-09-09T12:11:29;30.88;;;23.23;;
44516;SDS011;30223;17.182;-96.766;2022-09-09T12:13:59;30.50;;;24.17;;
44516;SDS011;30223;17.182;-96.766;2022-09-09T12:16:30;28.17;;;23.42;;
44516;SDS011;30223;17.182;-96.766;2022-09-09T12:19:05;32.30;;;24.00;;
44516;SDS011;30223;17.182;-96.766;2022-09-09T12:24:16;31.60;;;25.92;;
44516;SDS011;30223;17.182;-96.766;2022-09-09T12:26:52;32.35;;;25.38;;
44516;SDS011;30223;17.182;-96.766;2022-09-09T12:29:28;30.85;;;24.05;;
44516;SDS011;30223;17.182;-96.766;2022-09-09T12:32:06;29.52;;;24.00;;
44516;SDS011;30223;17.182;-96.766;2022-09-09T12:34:41;32.67;;;25.30;;
44516;SDS011;30223;17.182;-96.766;2022-09-09T12:39:59;35.53;;;26.88;;
44516;SDS011;30223;17.182;-96.766;2022-09-09T12:42:28;38.97;;;28.38;;
44516;SDS011;30223;17.182;-96.766;2022-09-09T12:44:56;34.30;;;27.10;;
44516;SDS011;30223;17.182;-96.766;2022-09-09T12:47:30;38.70;;;28.55;;
44516;SDS011;30223;17.182;-96.766;2022-09-09T12:50:17;37.58;;;29.25;;
44516;SDS011;30223;17.182;-96.766;2022-09-09T12:55:24;45.47;;;33.85;;
44516;SDS011;30223;17.182;-96.766;2022-09-09T12:57:55;39.65;;;32.38;;
44516;SDS011;30223;17.182;-96.766;2022-09-09T13:00:24;44.88;;;31.42;;
44516;SDS011;30223;17.182;-96.766;2022-09-09T13:02:56;41.25;;;30.13;;
44516;SDS011;30223;17.182;-96.766;2022-09-09T13:05:28;42.33;;;33.10;;
44516;SDS011;30223;17.182;-96.766;2022-09-09T13:08:02;43.15;;;31.70;;
44516;SDS011;30223;17.182;-96.766;2022-09-09T13:10:33;41.72;;;31.85;;
44516;SDS011;30223;17.182;-96.766;2022-09-09T13:13:34;37.00;;;30.05;;
44516;SDS011;30223;17.182;-96.766;2022-09-09T13:16:05;42.00;;;30.17;;
44516;SDS011;30223;17.182;-96.766;2022-09-09T13:18:43;42.17;;;30.50;;
44516;SDS011;30223;17.182;-96.766;2022-09-09T13:21:10;44.70;;;32.60;;
44516;SDS011;30223;17.182;-96.766;2022-09-09T13:23:37;41.58;;;30.45;;
44516;SDS011;30223;17.182;-96.766;2022-09-09T13:26:25;42.03;;;31.08;;
44516;SDS011;30223;17.182;-96.766;2022-09-09T13:28:54;41.25;;;29.35;;
44516;SDS011;30223;17.182;-96.766;2022-09-09T13:31:35;46.17;;;31.33;;
44516;SDS011;30223;17.182;-96.766;2022-09-09T13:34:25;44.60;;;31.50;;
44516;SDS011;30223;17.182;-96.766;2022-09-09T13:36:59;55.25;;;40.08;;
44516;SDS011;30223;17.182;-96.766;2022-09-09T13:39:37;47.08;;;33.95;;
44516;SDS011;30223;17.182;-96.766;2022-09-09T13:42:03;47.20;;;35.33;;
44516;SDS011;30223;17.182;-96.766;2022-09-09T13:44:34;42.83;;;30.33;;
44516;SDS011;30223;17.182;-96.766;2022-09-09T13:49:42;47.28;;;35.35;;
44516;SDS011;30223;17.182;-96.766;2022-09-09T13:52:12;54.33;;;37.83;;
44516;SDS011;30223;17.182;-96.766;2022-09-09T13:54:41;50.40;;;33.60;;
44516;SDS011;30223;17.182;-96.766;2022-09-09T13:57:24;55.25;;;37.60;;
44516;SDS011;30223;17.182;-96.766;2022-09-09T13:59:52;51.80;;;37.15;;
44516;SDS011;30223;17.182;-96.766;2022-09-09T14:02:22;56.03;;;38.88;;
44516;SDS011;30223;17.182;-96.766;2022-09-09T14:04:49;52.90;;;35.70;;
44516;SDS011;30223;17.182;-96.766;2022-09-09T14:07:20;54.80;;;37.00;;
44516;SDS011;30223;17.182;-96.766;2022-09-09T14:09:47;55.80;;;39.80;;
44516;SDS011;30223;17.182;-96.766;2022-09-09T14:12:15;57.58;;;38.78;;
44516;SDS011;30223;17.182;-96.766;2022-09-09T14:14:42;57.00;;;37.88;;
44516;SDS011;30223;17.182;-96.766;2022-09-09T14:17:09;57.45;;;37.22;;
44516;SDS011;30223;17.182;-96.766;2022-09-09T14:19:36;62.30;;;41.50;;
44516;SDS011;30223;17.182;-96.766;2022-09-09T14:22:02;60.03;;;39.63;;
44516;SDS011;30223;17.182;-96.766;2022-09-09T14:24:29;58.40;;;38.95;;
44516;SDS011;30223;17.182;-96.766;2022-09-09T14:26:56;54.47;;;37.10;;
44516;SDS011;30223;17.182;-96.766;2022-09-09T14:29:22;61.08;;;40.75;;
44516;SDS011;30223;17.182;-96.766;2022-09-09T14:31:50;62.33;;;39.97;;
44516;SDS011;30223;17.182;-96.766;2022-09-09T14:34:17;59.38;;;40.10;;
44516;SDS011;30223;17.182;-96.766;2022-09-09T14:36:43;63.85;;;42.08;;
44516;SDS011;30223;17.182;-96.766;2022-09-09T14:39:11;60.35;;;38.92;;
44516;SDS011;30223;17.182;-96.766;2022-09-09T14:41:37;65.82;;;43.10;;
44516;SDS011;30223;17.182;-96.766;2022-09-09T14:44:04;65.25;;;42.25;;
44516;SDS011;30223;17.182;-96.766;2022-09-09T14:46:30;61.58;;;42.45;;
44516;SDS011;30223;17.182;-96.766;2022-09-09T14:48:58;66.97;;;42.00;;
44516;SDS011;30223;17.182;-96.766;2022-09-09T14:51:25;64.90;;;42.00;;
44516;SDS011;30223;17.182;-96.766;2022-09-09T14:53:55;64.28;;;42.63;;
44516;SDS011;30223;17.182;-96.766;2022-09-09T14:56:26;66.65;;;42.13;;
44516;SDS011;30223;17.182;-96.766;2022-09-09T14:58:55;61.38;;;42.53;;
44516;SDS011;30223;17.182;-96.766;2022-09-09T15:01:23;64.27;;;45.97;;
44516;SDS011;30223;17.182;-96.766;2022-09-09T15:03:55;68.85;;;46.92;;
44516;SDS011;30223;17.182;-96.766;2022-09-09T15:06:27;70.78;;;43.40;;
44516;SDS011;30223;17.182;-96.766;2022-09-09T15:08:55;64.68;;;43.90;;
44516;SDS011;30223;17.182;-96.766;2022-09-09T15:11:26;68.28;;;44.95;;
44516;SDS011;30223;17.182;-96.766;2022-09-09T15:13:56;66.80;;;43.67;;
44516;SDS011;30223;17.182;-96.766;2022-09-09T15:16:24;68.35;;;42.45;;
44516;SDS011;30223;17.182;-96.766;2022-09-09T15:21:21;68.07;;;44.90;;
44516;SDS011;30223;17.182;-96.766;2022-09-09T15:23:49;66.97;;;42.92;;
44516;SDS011;30223;17.182;-96.766;2022-09-09T15:26:16;67.43;;;45.22;;
44516;SDS011;30223;17.182;-96.766;2022-09-09T15:28:44;71.57;;;46.60;;
44516;SDS011;30223;17.182;-96.766;2022-09-09T15:31:16;75.10;;;48.00;;
44516;SDS011;30223;17.182;-96.766;2022-09-09T15:36:19;66.32;;;43.70;;
44516;SDS011;30223;17.182;-96.766;2022-09-09T15:38:48;77.72;;;47.55;;
44516;SDS011;30223;17.182;-96.766;2022-09-09T15:41:16;78.68;;;50.40;;
44516;SDS011;30223;17.182;-96.766;2022-09-09T15:43:47;75.18;;;48.13;;
44516;SDS011;30223;17.182;-96.766;2022-09-09T15:48:54;75.10;;;49.08;;
44516;SDS011;30223;17.182;-96.766;2022-09-09T15:51:29;79.43;;;51.30;;
44516;SDS011;30223;17.182;-96.766;2022-09-09T15:53:56;76.78;;;53.30;;
44516;SDS011;30223;17.182;-96.766;2022-09-09T15:56:25;79.57;;;50.53;;
44516;SDS011;30223;17.182;-96.766;2022-09-09T15:58:54;76.10;;;52.78;;
44516;SDS011;30223;17.182;-96.766;2022-09-09T16:01:22;79.55;;;50.50;;
44516;SDS011;30223;17.182;-96.766;2022-09-09T16:03:49;78.63;;;52.28;;
44516;SDS011;30223;17.182;-96.766;2022-09-09T16:06:17;80.47;;;51.05;;
44516;SDS011;30223;17.182;-96.766;2022-09-09T16:08:47;83.00;;;53.33;;
44516;SDS011;30223;17.182;-96.766;2022-09-09T16:11:17;80.88;;;51.60;;
44516;SDS011;30223;17.182;-96.766;2022-09-09T16:13:54;87.60;;;55.88;;
44516;SDS011;30223;17.182;-96.766;2022-09-09T16:16:22;85.47;;;56.78;;
44516;SDS011;30223;17.182;-96.766;2022-09-09T16:18:52;88.78;;;57.67;;
44516;SDS011;30223;17.182;-96.766;2022-09-09T16:21:23;83.13;;;53.03;;
44516;SDS011;30223;17.182;-96.766;2022-09-09T16:23:51;88.97;;;58.25;;
44516;SDS011;30223;17.182;-96.766;2022-09-09T16:26:19;83.65;;;54.20;;
44516;SDS011;30223;17.182;-96.766;2022-09-09T16:28:46;95.30;;;60.90;;
44516;SDS011;30223;17.182;-96.766;2022-09-09T16:31:13;82.65;;;54.30;;
44516;SDS011;30223;17.182;-96.766;2022-09-09T16:33:44;82.85;;;54.63;;
44516;SDS011;30223;17.182;-96.766;2022-09-09T16:36:13;90.90;;;56.95;;
44516;SDS011;30223;17.182;-96.766;2022-09-09T16:38:42;89.03;;;58.38;;
44516;SDS011;30223;17.182;-96.766;2022-09-09T16:41:09;78.85;;;54.25;;
44516;SDS011;30223;17.182;-96.766;2022-09-09T16:43:37;100.95;;;61.00;;
44516;SDS011;30223;17.182;-96.766;2022-09-09T16:46:15;95.43;;;56.67;;
44516;SDS011;30223;17.182;-96.766;2022-09-09T16:48:44;90.35;;;54.95;;
44516;SDS011;30223;17.182;-96.766;2022-09-09T16:51:21;86.28;;;55.03;;
44516;SDS011;30223;17.182;-96.766;2022-09-09T16:53:59;91.18;;;61.33;;
44516;SDS011;30223;17.182;-96.766;2022-09-09T16:56:27;91.05;;;58.92;;
44516;SDS011;30223;17.182;-96.766;2022-09-09T16:58:56;81.37;;;57.17;;
44516;SDS011;30223;17.182;-96.766;2022-09-09T17:01:25;83.82;;;55.78;;
44516;SDS011;30223;17.182;-96.766;2022-09-09T17:03:53;91.03;;;54.90;;